Time;durP1;ratioP1;P1;durP2;ratioP2;P2;SDS_P1;SDS_P2;PMS_P1;PMS_P2;Temp;Humidity;BMP_temperature;BMP_pressure;BME280_temperature;BME280_humidity;BME280_pressure;Samples;Min_cycle;Max_cycle;Signal;HPM_P1;HPM_P2
2021/08/21 00:00:06;;;;;;;;;;;;;;;21.72;70.24;100174.08;449620;116;921399;-73
2021/08/21 00:01:11;;;;;;;;;;;;;;;21.68;70.42;100175.77;441872;118;921414;-74
2021/08/21 00:02:14;;;;;;;;;;;;;;;21.67;70.63;100176.09;441284;118;921536;-74
2021/08/21 00:03:17;;;;;;;;;;;;;;;21.64;70.71;100178.33;450088;116;921495;-74
2021/08/21 00:04:21;;;;;;;;;;;;;;;21.63;70.68;100178.62;439953;118;921508;-74
2021/08/21 00:05:24;;;;;;;;;;;;;;;21.59;70.75;100186.72;445565;117;921558;-73
2021/08/21 00:06:27;;;;;;;;;;;;;;;21.57;70.73;100191.73;448559;116;921548;-74
2021/08/21 00:07:31;;;;;;;;;;;;;;;21.55;70.74;100198.72;440817;117;921916;-73
2021/08/21 00:08:34;;;;;;;;;;;;;;;21.52;70.89;100208.44;449065;115;921583;-73
2021/08/21 00:09:37;;;;;;;;;;;;;;;21.51;71.31;100211.51;456867;114;921407;-74
2021/08/21 00:10:40;;;;;;;;;;;;;;;21.50;71.82;100207.91;456664;114;921524;-74
2021/08/21 00:11:43;;;;;;;;;;;;;;;21.49;72.37;100205.45;456566;114;921430;-74
2021/08/21 00:12:46;;;;;;;;;;;;;;;21.46;72.84;100215.17;456082;114;921392;-74
2021/08/21 00:13:50;;;;;;;;;;;;;;;21.43;73.23;100206.63;456430;114;922943;-74
2021/08/21 00:14:53;;;;;;;;;;;;;;;21.39;73.31;100209.14;457715;112;923061;-73
2021/08/21 00:15:57;;;;;;;;;;;;;;;21.37;73.35;100211.41;453189;114;922649;-74
2021/08/21 00:17:01;;;;;;;;;;;;;;;21.33;73.71;100210.35;460382;114;922644;-74
2021/08/21 00:18:05;;;;;;;;;;;;;;;21.31;73.84;100206.20;460180;114;923183;-73
2021/08/21 00:19:09;;;;;;;;;;;;;;;21.27;74.03;100194.06;458294;114;922656;-73
2021/08/21 00:20:12;;;;;;;;;;;;;;;21.21;74.09;100196.89;457778;114;922645;-75
2021/08/21 00:21:16;;;;;;;;;;;;;;;21.16;74.18;100182.27;457042;114;923133;-73
2021/08/21 00:22:19;;;;;;;;;;;;;;;21.10;74.38;100189.78;457693;114;922046;-72
2021/08/21 00:23:23;;;;;;;;;;;;;;;21.05;74.62;100192.61;457519;114;923342;-73
2021/08/21 00:24:26;;;;;;;;;;;;;;;21.02;74.76;100198.72;457791;114;922664;-73
2021/08/21 00:25:30;;;;;;;;;;;;;;;20.98;74.77;100197.66;457938;114;923150;-74
2021/08/21 00:26:34;;;;;;;;;;;;;;;20.93;74.88;100203.26;457121;114;922672;-74
2021/08/21 00:27:38;;;;;;;;;;;;;;;20.88;75.07;100194.17;457833;114;922655;-72
2021/08/21 00:28:41;;;;;;;;;;;;;;;20.85;75.14;100197.50;457166;114;921546;-72
2021/08/21 00:29:46;;;;;;;;;;;;;;;20.81;75.34;100194.50;457140;114;922638;-73
2021/08/21 00:30:50;;;;;;;;;;;;;;;20.80;75.51;100190.08;450820;114;923193;-73
2021/08/21 00:31:53;;;;;;;;;;;;;;;20.79;75.54;100196.73;458352;114;922709;-72
2021/08/21 00:32:57;;;;;;;;;;;;;;;20.80;75.49;100187.30;458131;114;923096;-73
2021/08/21 00:34:01;;;;;;;;;;;;;;;20.80;75.22;100190.91;458306;114;923591;-75
2021/08/21 00:35:06;;;;;;;;;;;;;;;20.79;75.15;100186.47;457302;114;923165;-73
2021/08/21 00:36:09;;;;;;;;;;;;;;;20.79;75.19;100200.33;456479;114;922742;-72
2021/08/21 00:37:12;;;;;;;;;;;;;;;20.80;75.33;100198.39;455548;114;922741;-72
2021/08/21 00:38:16;;;;;;;;;;;;;;;20.81;75.18;100192.56;458608;114;922633;-73
2021/08/21 00:39:20;;;;;;;;;;;;;;;20.82;75.05;100190.62;458852;114;922623;-74
2021/08/21 00:40:23;;;;;;;;;;;;;;;20.84;74.82;100190.34;458764;114;922683;-74
2021/08/21 00:41:26;;;;;;;;;;;;;;;20.84;74.79;100185.59;457736;114;922624;-73
2021/08/21 00:42:29;;;;;;;;;;;;;;;20.85;74.94;100187.25;458258;113;922626;-73
2021/08/21 00:43:36;;;;;;;;;;;;;;;20.87;75.32;100187.80;457431;114;922691;-73
2021/08/21 00:44:40;;;;;;;;;;;;;;;20.85;75.63;100187.25;457899;114;922575;-74
2021/08/21 00:45:45;;;;;;;;;;;;;;;20.80;75.85;100181.77;453000;114;921595;-72
2021/08/21 00:46:53;;;;;;;;;;;;;;;20.74;76.44;100182.92;457527;114;922677;-73
2021/08/21 00:47:57;;;;;;;;;;;;;;;20.67;77.01;100177.75;459316;114;921533;-72
2021/08/21 00:49:00;;;;;;;;;;;;;;;20.62;77.16;100179.73;457610;114;923601;-73
2021/08/21 00:50:04;;;;;;;;;;;;;;;20.55;77.19;100180.06;456809;114;921436;-72
2021/08/21 00:51:08;;;;;;;;;;;;;;;20.49;77.54;100188.70;456144;113;921607;-72
2021/08/21 00:52:16;;;;;;;;;;;;;;;20.42;77.83;100188.20;457560;114;921987;-73
2021/08/21 00:53:19;;;;;;;;;;;;;;;20.36;78.43;100192.95;457010;115;921490;-72
2021/08/21 00:54:22;;;;;;;;;;;;;;;20.33;78.90;100185.23;457112;112;921407;-73
2021/08/21 00:55:26;;;;;;;;;;;;;;;20.29;78.87;100192.41;456389;113;921621;-72
2021/08/21 00:56:29;;;;;;;;;;;;;;;20.26;79.02;100193.83;456155;114;921485;-73
2021/08/21 00:57:32;;;;;;;;;;;;;;;20.23;79.10;100201.89;458964;114;921435;-73
2021/08/21 00:58:36;;;;;;;;;;;;;;;20.19;79.15;100200.80;459372;114;921622;-73
2021/08/21 00:59:40;;;;;;;;;;;;;;;20.13;79.38;100191.70;450350;116;921441;-73
2021/08/21 01:00:44;;;;;;;;;;;;;;;20.12;80.02;100192.84;441718;118;921440;-73
2021/08/21 01:01:48;;;;;;;;;;;;;;;20.13;80.48;100194.47;450216;116;921564;-73
2021/08/21 01:02:52;;;;;;;;;;;;;;;20.14;80.44;100190.59;440213;118;921655;-73
2021/08/21 01:03:56;;;;;;;;;;;;;;;20.14;80.49;100185.05;446051;117;921552;-73
2021/08/21 01:05:01;;;;;;;;;;;;;;;20.15;80.73;100175.64;449098;116;921515;-73
2021/08/21 01:06:06;;;;;;;;;;;;;;;20.17;80.75;100178.96;440141;117;921660;-72
2021/08/21 01:07:10;;;;;;;;;;;;;;;20.18;80.64;100168.72;441486;118;921511;-73
2021/08/21 01:08:14;;;;;;;;;;;;;;;20.18;80.96;100169.52;449015;116;921466;-73
2021/08/21 01:09:25;;;;;;;;;;;;;;;20.21;81.32;100168.95;443141;116;921571;-72
2021/08/21 01:10:28;;;;;;;;;;;;;;;20.24;81.48;100165.59;449485;116;921488;-73
2021/08/21 01:11:32;;;;;;;;;;;;;;;20.28;81.64;100174.17;441566;118;921638;-73
2021/08/21 01:12:36;;;;;;;;;;;;;;;20.32;81.70;100172.50;449373;116;922700;-73
2021/08/21 01:13:39;;;;;;;;;;;;;;;20.35;81.99;100178.27;456891;113;922745;-73
2021/08/21 01:14:44;;;;;;;;;;;;;;;20.39;82.12;100187.68;448107;116;923129;-72
2021/08/21 01:15:48;;;;;;;;;;;;;;;20.42;81.93;100185.43;439943;118;922762;-73
2021/08/21 01:16:52;;;;;;;;;;;;;;;20.44;81.74;100195.12;444215;117;922698;-73
2021/08/21 01:17:56;;;;;;;;;;;;;;;20.47;81.85;100190.92;446966;116;923014;-72
2021/08/21 01:19:00;;;;;;;;;;;;;;;20.48;81.75;100198.95;447831;116;923124;-74
2021/08/21 01:20:05;;;;;;;;;;;;;;;20.50;81.61;100202.27;449516;116;921947;-73
2021/08/21 01:21:10;;;;;;;;;;;;;;;20.51;81.54;100217.75;439916;118;922752;-73
2021/08/21 01:22:15;;;;;;;;;;;;;;;20.52;81.42;100226.89;446215;117;922721;-74
2021/08/21 01:23:18;;;;;;;;;;;;;;;20.52;81.18;100224.95;435788;119;921536;-73
2021/08/21 01:24:23;;;;;;;;;;;;;;;20.53;81.22;100228.55;457393;114;922820;-72
2021/08/21 01:25:28;;;;;;;;;;;;;;;20.53;81.29;100234.91;459491;111;922636;-72
2021/08/21 01:26:33;;;;;;;;;;;;;;;20.54;81.20;100227.44;456665;114;922544;-72
2021/08/21 01:27:38;;;;;;;;;;;;;;;20.54;81.12;100230.20;454751;114;922747;-70
2021/08/21 01:28:44;;;;;;;;;;;;;;;20.54;80.85;100235.74;454323;114;922702;-72
2021/08/21 01:30:02;;;;;;;;;;;;;;;20.53;80.67;100234.09;449241;116;922759;-71
2021/08/21 01:31:20;;;;;;;;;;;;;;;20.52;80.50;100226.89;437220;120;923226;-72
2021/08/21 01:32:25;;;;;;;;;;;;;;;20.51;80.47;100234.36;447598;114;922724;-73
2021/08/21 01:33:28;;;;;;;;;;;;;;;20.51;80.38;100239.11;457049;114;921374;-73
2021/08/21 01:34:31;;;;;;;;;;;;;;;20.52;80.54;100237.97;456205;114;921689;-73
2021/08/21 01:35:35;;;;;;;;;;;;;;;20.53;80.53;100239.63;456668;114;922704;-73
2021/08/21 01:36:41;;;;;;;;;;;;;;;20.54;80.60;100238.52;457146;115;921381;-73
2021/08/21 01:38:02;;;;;;;;;;;;;;;20.56;80.80;100230.76;456762;114;922655;-73
2021/08/21 01:39:10;;;;;;;;;;;;;;;20.56;80.74;100233.53;456738;114;923322;-73
2021/08/21 01:40:17;;;;;;;;;;;;;;;20.54;80.65;100219.95;456270;114;923152;-73
2021/08/21 01:41:20;;;;;;;;;;;;;;;20.53;80.65;100223.01;454995;114;923680;-74
2021/08/21 01:42:26;;;;;;;;;;;;;;;20.49;80.69;100216.41;456015;114;921612;-75
2021/08/21 01:43:29;;;;;;;;;;;;;;;20.44;80.59;100208.13;458025;114;921460;-75
2021/08/21 01:44:33;;;;;;;;;;;;;;;20.40;80.85;100222.54;450644;116;921550;-75
2021/08/21 01:45:36;;;;;;;;;;;;;;;20.37;81.21;100220.36;440389;120;921507;-75
2021/08/21 01:46:40;;;;;;;;;;;;;;;20.34;81.03;100220.13;442097;117;921529;-75
2021/08/21 01:47:44;;;;;;;;;;;;;;;20.27;80.83;100219.58;450174;117;921512;-75
2021/08/21 01:48:47;;;;;;;;;;;;;;;20.21;81.03;100227.09;450195;117;921396;-75
2021/08/21 01:49:52;;;;;;;;;;;;;;;20.16;81.29;100238.20;449332;116;921483;-74
2021/08/21 01:50:56;;;;;;;;;;;;;;;20.11;81.60;100232.70;448957;116;921566;-75
2021/08/21 01:52:04;;;;;;;;;;;;;;;20.09;81.96;100232.14;450477;116;921553;-72
2021/08/21 01:53:12;;;;;;;;;;;;;;;20.09;82.30;100239.62;450642;116;921428;-75
2021/08/21 01:54:20;;;;;;;;;;;;;;;20.06;82.25;100241.03;432571;120;921472;-74
2021/08/21 01:55:23;;;;;;;;;;;;;;;20.04;82.06;100242.42;448887;116;921468;-73
2021/08/21 01:56:28;;;;;;;;;;;;;;;19.99;82.06;100241.34;439669;119;921509;-74
2021/08/21 01:57:40;;;;;;;;;;;;;;;19.93;81.69;100247.18;446121;117;921488;-72
2021/08/21 01:58:49;;;;;;;;;;;;;;;19.84;81.34;100248.90;446641;116;923025;-73
2021/08/21 02:00:00;;;;;;;;;;;;;;;19.73;80.96;100252.82;441093;116;922727;-73
2021/08/21 02:01:20;;;;;;;;;;;;;;;19.61;80.87;100255.91;436249;120;922596;-73
2021/08/21 02:02:35;;;;;;;;;;;;;;;19.51;80.95;100259.55;433020;115;923165;-74
2021/08/21 02:03:55;;;;;;;;;;;;;;;19.41;80.81;100253.98;455574;114;921594;-74
2021/08/21 02:04:58;;;;;;;;;;;;;;;19.31;80.65;100251.25;455858;114;922605;-75
2021/08/21 02:06:02;;;;;;;;;;;;;;;19.22;80.74;100250.18;445879;116;922905;-72
2021/08/21 02:07:07;;;;;;;;;;;;;;;19.13;80.83;100244.37;448162;114;922664;-73
2021/08/21 02:08:10;;;;;;;;;;;;;;;19.07;80.72;100250.22;441987;118;923024;-73
2021/08/21 02:09:17;;;;;;;;;;;;;;;19.02;80.66;100247.47;440720;119;922705;-73
2021/08/21 02:10:21;;;;;;;;;;;;;;;18.94;80.73;100248.84;449771;116;922732;-73
2021/08/21 02:11:25;;;;;;;;;;;;;;;18.90;81.15;100256.04;448916;116;922677;-74
2021/08/21 02:12:29;;;;;;;;;;;;;;;18.87;81.29;100261.27;440384;119;922673;-74
2021/08/21 02:13:37;;;;;;;;;;;;;;;18.85;81.30;100260.73;445928;117;921577;-73
2021/08/21 02:14:41;;;;;;;;;;;;;;;18.82;81.46;100264.87;449222;116;922554;-73
2021/08/21 02:15:45;;;;;;;;;;;;;;;18.81;81.91;100263.20;439184;117;922717;-73
2021/08/21 02:16:51;;;;;;;;;;;;;;;18.82;82.35;100273.16;445909;117;922692;-72
2021/08/21 02:17:55;;;;;;;;;;;;;;;18.86;82.79;100265.97;438969;118;922698;-72
2021/08/21 02:19:18;;;;;;;;;;;;;;;18.92;82.98;100275.08;440112;116;922723;-73
2021/08/21 02:20:23;;;;;;;;;;;;;;;18.94;82.63;100264.59;440559;118;921496;-73
2021/08/21 02:21:27;;;;;;;;;;;;;;;18.93;82.36;100261.00;440520;118;922660;-72
2021/08/21 02:22:33;;;;;;;;;;;;;;;18.93;82.21;100249.94;442432;118;922742;-72
2021/08/21 02:23:36;;;;;;;;;;;;;;;18.93;82.17;100255.47;440532;118;921517;-73
2021/08/21 02:24:41;;;;;;;;;;;;;;;18.93;82.27;100246.35;444417;117;922640;-75
2021/08/21 02:25:45;;;;;;;;;;;;;;;18.93;82.52;100247.18;448547;116;922687;-72
2021/08/21 02:26:49;;;;;;;;;;;;;;;18.97;82.85;100250.20;447733;116;922626;-74
2021/08/21 02:27:57;;;;;;;;;;;;;;;19.00;82.98;100244.14;449804;114;922766;-72
2021/08/21 02:29:01;;;;;;;;;;;;;;;19.04;83.11;100250.76;444441;117;922597;-73
2021/08/21 02:30:06;;;;;;;;;;;;;;;19.09;83.27;100251.58;445357;116;923275;-73
2021/08/21 02:31:09;;;;;;;;;;;;;;;19.12;83.01;100252.97;445426;119;922634;-72
2021/08/21 02:32:13;;;;;;;;;;;;;;;19.16;82.92;100248.53;445399;116;921490;-73
2021/08/21 02:33:16;;;;;;;;;;;;;;;19.19;82.64;100253.48;446851;116;921525;-74
2021/08/21 02:34:23;;;;;;;;;;;;;;;19.20;82.60;100255.15;443811;117;921775;-74
2021/08/21 02:35:27;;;;;;;;;;;;;;;19.22;82.46;100257.64;443454;118;921373;-74
2021/08/21 02:36:30;;;;;;;;;;;;;;;19.22;82.10;100249.35;444103;118;921627;-74
2021/08/21 02:37:34;;;;;;;;;;;;;;;19.22;81.96;100247.42;444363;118;921596;-74
2021/08/21 02:38:37;;;;;;;;;;;;;;;19.22;82.15;100247.42;443024;118;921874;-74
2021/08/21 02:39:43;;;;;;;;;;;;;;;19.22;82.10;100244.66;441480;118;921947;-74
2021/08/21 02:40:46;;;;;;;;;;;;;;;19.22;82.32;100252.12;441452;116;921478;-74
2021/08/21 02:41:50;;;;;;;;;;;;;;;19.23;82.57;100257.37;442133;118;921622;-75
2021/08/21 02:42:53;;;;;;;;;;;;;;;19.23;82.38;100257.37;442097;117;921446;-75
2021/08/21 02:43:56;;;;;;;;;;;;;;;19.22;81.99;100265.94;441671;118;921543;-74
2021/08/21 02:44:59;;;;;;;;;;;;;;;19.18;82.04;100269.23;442403;118;921474;-73
2021/08/21 02:46:03;;;;;;;;;;;;;;;19.16;81.98;100273.41;442096;118;923114;-73
2021/08/21 02:47:07;;;;;;;;;;;;;;;19.11;81.78;100263.20;444804;117;923571;-74
2021/08/21 02:48:10;;;;;;;;;;;;;;;19.04;81.92;100268.17;441456;118;922736;-72
2021/08/21 02:49:14;;;;;;;;;;;;;;;18.98;82.26;100265.69;443709;116;921489;-73
2021/08/21 02:50:18;;;;;;;;;;;;;;;18.93;82.40;100265.69;444630;117;922723;-73
2021/08/21 02:51:21;;;;;;;;;;;;;;;18.89;82.54;100272.88;444590;117;921456;-73
2021/08/21 02:52:25;;;;;;;;;;;;;;;18.85;82.69;100269.86;444152;117;922683;-74
2021/08/21 02:53:29;;;;;;;;;;;;;;;18.83;83.22;100263.77;444902;115;922632;-74
2021/08/21 02:54:33;;;;;;;;;;;;;;;18.86;83.64;100265.13;446098;116;922787;-73
2021/08/21 02:55:37;;;;;;;;;;;;;;;18.89;83.78;100268.19;447231;115;923124;-74
2021/08/21 02:56:41;;;;;;;;;;;;;;;18.91;83.44;100268.72;445786;117;922992;-73
2021/08/21 02:57:44;;;;;;;;;;;;;;;18.88;83.16;100262.94;445837;116;922743;-74
2021/08/21 02:58:49;;;;;;;;;;;;;;;18.83;82.93;100262.94;447526;117;922713;-72
2021/08/21 02:59:53;;;;;;;;;;;;;;;18.78;82.84;100268.47;440506;119;923195;-74
2021/08/21 03:00:58;;;;;;;;;;;;;;;18.73;82.89;100264.61;440083;117;921737;-74
2021/08/21 03:02:03;;;;;;;;;;;;;;;18.70;83.03;100267.91;446099;116;922679;-72
2021/08/21 03:03:08;;;;;;;;;;;;;;;18.67;83.26;100268.47;444817;116;922702;-74
2021/08/21 03:04:13;;;;;;;;;;;;;;;18.66;83.63;100264.05;444699;116;922794;-74
2021/08/21 03:05:17;;;;;;;;;;;;;;;18.67;83.84;100273.16;445304;116;923191;-73
2021/08/21 03:06:21;;;;;;;;;;;;;;;18.69;83.94;100270.94;445797;118;922689;-72
2021/08/21 03:07:24;;;;;;;;;;;;;;;18.69;84.03;100280.05;436512;118;922704;-73
2021/08/21 03:08:30;;;;;;;;;;;;;;;18.71;84.16;100280.61;444046;117;922639;-74
2021/08/21 03:09:34;;;;;;;;;;;;;;;18.72;84.17;100285.05;441876;118;922965;-73
2021/08/21 03:10:38;;;;;;;;;;;;;;;18.73;84.34;100286.70;439189;116;923173;-73
2021/08/21 03:11:42;;;;;;;;;;;;;;;18.75;84.63;100295.52;444909;117;922083;-73
2021/08/21 03:12:47;;;;;;;;;;;;;;;18.79;84.76;100301.34;443414;117;921592;-74
2021/08/21 03:13:52;;;;;;;;;;;;;;;18.82;84.71;100303.55;444308;117;922989;-73
2021/08/21 03:14:55;;;;;;;;;;;;;;;18.84;84.67;100311.56;448094;115;922710;-74
2021/08/21 03:15:59;;;;;;;;;;;;;;;18.85;84.71;100308.53;435994;119;921488;-74
2021/08/21 03:17:03;;;;;;;;;;;;;;;18.85;84.55;100305.77;439252;118;921735;-73
2021/08/21 03:18:06;;;;;;;;;;;;;;;18.87;84.73;100294.42;442541;117;922002;-74
2021/08/21 03:19:09;;;;;;;;;;;;;;;18.89;84.71;100298.58;444680;117;921697;-74
2021/08/21 03:20:13;;;;;;;;;;;;;;;18.88;84.41;100296.09;447228;116;923085;-73
2021/08/21 03:21:17;;;;;;;;;;;;;;;18.86;84.52;100293.59;444170;118;921538;-73
2021/08/21 03:22:22;;;;;;;;;;;;;;;18.88;84.78;100294.16;445371;117;922725;-73
2021/08/21 03:23:26;;;;;;;;;;;;;;;18.90;84.80;100286.43;446757;117;921632;-73
2021/08/21 03:24:29;;;;;;;;;;;;;;;18.92;84.62;100291.66;436366;119;921509;-73
2021/08/21 03:25:32;;;;;;;;;;;;;;;18.90;84.55;100278.14;435234;118;921541;-74
2021/08/21 03:26:36;;;;;;;;;;;;;;;18.89;84.59;100284.77;434058;120;921465;-73
2021/08/21 03:27:40;;;;;;;;;;;;;;;18.90;84.71;100285.59;449420;115;921466;-74
2021/08/21 03:28:43;;;;;;;;;;;;;;;18.91;84.86;100284.50;445609;117;921513;-73
2021/08/21 03:29:47;;;;;;;;;;;;;;;18.91;84.96;100284.50;455936;113;921436;-73
2021/08/21 03:30:50;;;;;;;;;;;;;;;18.93;85.05;100283.09;456157;114;921503;-74
2021/08/21 03:31:58;;;;;;;;;;;;;;;18.96;85.07;100278.97;454460;115;921614;-74
2021/08/21 03:33:01;;;;;;;;;;;;;;;18.97;85.03;100275.07;454114;115;921861;-74
2021/08/21 03:34:05;;;;;;;;;;;;;;;18.97;85.09;100277.83;453149;115;921631;-75
2021/08/21 03:35:09;;;;;;;;;;;;;;;18.97;85.07;100273.14;455203;114;921490;-74
2021/08/21 03:36:13;;;;;;;;;;;;;;;18.99;85.15;100278.40;454743;114;921583;-74
2021/08/21 03:37:17;;;;;;;;;;;;;;;19.00;85.29;100271.77;451083;116;921471;-74
2021/08/21 03:38:21;;;;;;;;;;;;;;;19.03;85.48;100282.25;451203;116;921716;-74
2021/08/21 03:39:35;;;;;;;;;;;;;;;19.06;85.41;100273.42;456756;114;921686;-74
2021/08/21 03:40:38;;;;;;;;;;;;;;;19.06;85.39;100273.42;457667;114;921669;-74
2021/08/21 03:41:43;;;;;;;;;;;;;;;19.10;85.58;100277.28;453408;114;921493;-75
2021/08/21 03:42:47;;;;;;;;;;;;;;;19.11;85.39;100265.13;452083;116;923125;-74
2021/08/21 03:43:51;;;;;;;;;;;;;;;19.12;85.20;100264.02;457170;114;923205;-76
2021/08/21 03:44:54;;;;;;;;;;;;;;;19.12;85.19;100264.02;456434;114;923168;-74
2021/08/21 03:45:58;;;;;;;;;;;;;;;19.11;84.96;100260.43;455804;114;922678;-74
2021/08/21 03:47:03;;;;;;;;;;;;;;;19.10;84.84;100266.23;455427;115;923198;-74
2021/08/21 03:48:10;;;;;;;;;;;;;;;19.09;85.03;100270.09;449674;116;923389;-73
2021/08/21 03:49:14;;;;;;;;;;;;;;;19.10;85.14;100266.23;448925;116;922708;-73
2021/08/21 03:50:18;;;;;;;;;;;;;;;19.10;85.55;100267.06;449045;117;921659;-74
2021/08/21 03:51:21;;;;;;;;;;;;;;;19.12;85.74;100264.86;448307;117;921422;-73
2021/08/21 03:52:26;;;;;;;;;;;;;;;19.15;85.94;100268.98;448366;117;922666;-74
2021/08/21 03:53:30;;;;;;;;;;;;;;;19.16;85.81;100270.64;448592;116;923126;-75
2021/08/21 03:54:35;;;;;;;;;;;;;;;19.18;85.93;100268.44;446943;116;923259;-73
2021/08/21 03:55:39;;;;;;;;;;;;;;;19.21;86.08;100265.11;447690;117;922670;-73
2021/08/21 03:56:43;;;;;;;;;;;;;;;19.21;85.92;100265.11;449991;115;923226;-72
2021/08/21 03:57:46;;;;;;;;;;;;;;;19.23;85.87;100265.66;452746;115;922485;-73
2021/08/21 03:58:50;;;;;;;;;;;;;;;19.23;85.92;100267.59;450190;114;922637;-73
2021/08/21 03:59:54;;;;;;;;;;;;;;;19.25;85.78;100268.95;453766;114;923138;-72
2021/08/21 04:00:58;;;;;;;;;;;;;;;19.25;85.60;100257.91;452668;115;922643;-75
2021/08/21 04:02:02;;;;;;;;;;;;;;;19.25;85.63;100257.91;456065;114;924119;-73
2021/08/21 04:03:08;;;;;;;;;;;;;;;19.26;85.74;100258.73;451303;116;922778;-74
2021/08/21 04:04:12;;;;;;;;;;;;;;;19.28;85.78;100262.05;449752;116;922902;-72
2021/08/21 04:05:16;;;;;;;;;;;;;;;19.27;85.64;100266.75;449952;116;922682;-73
2021/08/21 04:06:20;;;;;;;;;;;;;;;19.28;85.77;100267.59;456019;114;922529;-73
2021/08/21 04:07:24;;;;;;;;;;;;;;;19.30;85.90;100271.71;455291;115;922675;-74
2021/08/21 04:08:29;;;;;;;;;;;;;;;19.32;85.91;100271.44;456491;114;922719;-75
2021/08/21 04:09:32;;;;;;;;;;;;;;;19.33;85.85;100273.10;456715;114;923984;-73
2021/08/21 04:10:37;;;;;;;;;;;;;;;19.32;85.51;100279.73;456726;114;921387;-73
2021/08/21 04:11:43;;;;;;;;;;;;;;;19.27;85.26;100282.51;455766;116;922689;-73
2021/08/21 04:12:49;;;;;;;;;;;;;;;19.20;84.92;100282.79;453577;115;923104;-73
2021/08/21 04:13:52;;;;;;;;;;;;;;;19.11;84.67;100285.30;448703;116;922650;-74
2021/08/21 04:14:56;;;;;;;;;;;;;;;19.04;84.47;100300.50;448752;116;922690;-73
2021/08/21 04:16:00;;;;;;;;;;;;;;;18.94;84.45;100295.81;452066;114;921504;-74
2021/08/21 04:17:03;;;;;;;;;;;;;;;18.86;84.43;100298.28;455384;114;921657;-73
2021/08/21 04:18:06;;;;;;;;;;;;;;;18.80;84.75;100297.45;454779;114;921704;-73
2021/08/21 04:19:10;;;;;;;;;;;;;;;18.79;85.22;100295.82;455585;114;921545;-73
2021/08/21 04:20:15;;;;;;;;;;;;;;;18.82;85.64;100297.19;454567;116;921428;-73
2021/08/21 04:21:18;;;;;;;;;;;;;;;18.86;85.84;100298.28;456057;114;921468;-75
2021/08/21 04:22:21;;;;;;;;;;;;;;;18.90;85.88;100297.48;454647;114;921560;-73
2021/08/21 04:23:26;;;;;;;;;;;;;;;18.94;85.84;100292.22;454116;114;921622;-73
2021/08/21 04:24:32;;;;;;;;;;;;;;;18.95;85.77;100296.64;456709;114;921505;-74
2021/08/21 04:25:37;;;;;;;;;;;;;;;18.99;85.86;100292.22;456967;114;921544;-74
2021/08/21 04:26:42;;;;;;;;;;;;;;;19.02;85.91;100298.00;456961;114;921535;-73
2021/08/21 04:27:46;;;;;;;;;;;;;;;19.07;86.06;100294.44;457186;115;921465;-73
2021/08/21 04:28:49;;;;;;;;;;;;;;;19.11;86.28;100299.13;457211;116;922412;-74
2021/08/21 04:29:52;;;;;;;;;;;;;;;19.15;86.28;100291.09;457221;114;921580;-74
2021/08/21 04:30:56;;;;;;;;;;;;;;;19.19;86.23;100297.71;456740;114;921468;-73
2021/08/21 04:32:00;;;;;;;;;;;;;;;19.21;86.16;100298.27;455752;114;921592;-74
2021/08/21 04:33:03;;;;;;;;;;;;;;;19.23;86.11;100287.78;456311;112;921508;-74
2021/08/21 04:34:07;;;;;;;;;;;;;;;19.25;86.00;100290.23;455993;114;922630;-74
2021/08/21 04:35:10;;;;;;;;;;;;;;;19.24;85.90;100289.41;455467;114;922706;-73
2021/08/21 04:36:14;;;;;;;;;;;;;;;19.25;85.87;100290.23;456161;114;921473;-73
2021/08/21 04:37:17;;;;;;;;;;;;;;;19.26;85.88;100283.61;443371;118;921527;-75
2021/08/21 04:38:21;;;;;;;;;;;;;;;19.27;85.98;100291.63;445088;116;923078;-74
2021/08/21 04:39:26;;;;;;;;;;;;;;;19.29;85.95;100280.30;443277;117;922323;-73
2021/08/21 04:40:30;;;;;;;;;;;;;;;19.31;85.76;100284.43;442063;118;922592;-75
2021/08/21 04:41:35;;;;;;;;;;;;;;;19.32;85.66;100288.86;450335;115;922657;-73
2021/08/21 04:42:39;;;;;;;;;;;;;;;19.33;85.83;100295.22;443002;117;921846;-74
2021/08/21 04:43:43;;;;;;;;;;;;;;;19.35;86.15;100291.05;442870;117;922688;-73
2021/08/21 04:44:46;;;;;;;;;;;;;;;19.38;86.16;100292.44;450572;115;922631;-73
2021/08/21 04:45:50;;;;;;;;;;;;;;;19.39;85.98;100292.17;461229;113;923144;-73
2021/08/21 04:46:54;;;;;;;;;;;;;;;19.39;85.67;100292.17;460653;113;923200;-74
2021/08/21 04:47:58;;;;;;;;;;;;;;;19.39;85.65;100296.87;461183;113;922670;-72
2021/08/21 04:49:02;;;;;;;;;;;;;;;19.40;85.74;100293.00;460848;113;923151;-72
2021/08/21 04:50:07;;;;;;;;;;;;;;;19.41;85.70;100302.92;460432;113;922659;-72
2021/08/21 04:51:11;;;;;;;;;;;;;;;19.41;85.65;100289.94;460473;113;922665;-72
2021/08/21 04:52:15;;;;;;;;;;;;;;;19.42;85.47;100293.53;457345;113;922683;-75
2021/08/21 04:53:20;;;;;;;;;;;;;;;19.41;85.43;100289.09;456184;113;922673;-74
2021/08/21 04:54:25;;;;;;;;;;;;;;;19.42;85.59;100294.36;460246;113;923141;-73
2021/08/21 04:55:28;;;;;;;;;;;;;;;19.44;85.67;100292.16;460588;113;922696;-73
2021/08/21 04:56:32;;;;;;;;;;;;;;;19.47;85.75;100302.67;460622;113;922687;-74
2021/08/21 04:57:37;;;;;;;;;;;;;;;19.51;85.72;100300.19;452728;113;922775;-73
2021/08/21 04:58:41;;;;;;;;;;;;;;;19.51;85.47;100300.19;459446;113;923169;-71
2021/08/21 04:59:45;;;;;;;;;;;;;;;19.51;85.51;100303.79;445082;117;921598;-72
2021/08/21 05:00:48;;;;;;;;;;;;;;;19.54;85.50;100302.39;453109;115;922630;-72
2021/08/21 05:01:54;;;;;;;;;;;;;;;19.54;85.36;100297.69;456900;114;922662;-72
2021/08/21 05:02:58;;;;;;;;;;;;;;;19.54;85.19;100305.98;459001;113;923461;-73
2021/08/21 05:04:02;;;;;;;;;;;;;;;19.53;85.18;100301.55;459503;113;921647;-74
2021/08/21 05:05:08;;;;;;;;;;;;;;;19.53;85.09;100304.31;459552;113;922639;-74
2021/08/21 05:06:12;;;;;;;;;;;;;;;19.52;85.09;100302.66;460666;113;922677;-73
2021/08/21 05:07:15;;;;;;;;;;;;;;;19.52;85.26;100307.36;457925;113;922616;-73
2021/08/21 05:08:20;;;;;;;;;;;;;;;19.54;85.43;100305.15;455169;113;922844;-73
2021/08/21 05:09:25;;;;;;;;;;;;;;;19.55;85.16;100298.52;461086;113;922644;-74
2021/08/21 05:10:31;;;;;;;;;;;;;;;19.54;85.01;100303.22;461111;115;921649;-72
2021/08/21 05:11:34;;;;;;;;;;;;;;;19.53;85.05;100298.78;460952;113;921562;-73
2021/08/21 05:12:38;;;;;;;;;;;;;;;19.53;85.09;100293.26;460913;113;921409;-72
2021/08/21 05:13:43;;;;;;;;;;;;;;;19.56;85.32;100294.64;460578;113;921552;-73
2021/08/21 05:14:46;;;;;;;;;;;;;;;19.59;85.71;100291.30;461327;113;921556;-72
2021/08/21 05:15:49;;;;;;;;;;;;;;;19.65;85.89;100294.88;459429;111;921493;-73
2021/08/21 05:16:55;;;;;;;;;;;;;;;19.70;85.89;100303.99;458378;113;921539;-75
2021/08/21 05:18:24;;;;;;;;;;;;;;;19.75;85.62;100308.67;459990;114;921499;-73
2021/08/21 05:19:32;;;;;;;;;;;;;;;19.75;85.16;100305.91;459043;113;921614;-76
2021/08/21 05:20:51;;;;;;;;;;;;;;;19.76;84.86;100299.27;459614;113;921453;-71
2021/08/21 05:21:52;;;;;;;;;;;;;;;19.73;84.76;100308.98;459483;113;921586;-76
2021/08/21 05:23:13;;;;;;;;;;;;;;;19.74;84.76;100304.25;456266;114;921510;-75
2021/08/21 05:24:13;;;;;;;;;;;;;;;19.73;84.64;100308.98;455529;112;922678;-75
2021/08/21 05:25:16;;;;;;;;;;;;;;;19.73;84.59;100314.52;455896;114;925579;-76
2021/08/21 05:26:19;;;;;;;;;;;;;;;19.74;84.63;100316.14;457290;114;922665;-76
2021/08/21 05:27:25;;;;;;;;;;;;;;;19.75;84.50;100311.44;456333;114;923182;-76
2021/08/21 05:28:29;;;;;;;;;;;;;;;19.75;84.49;100317.80;455174;114;922719;-75